sensor_id;sensor_type;location;lat;lon;timestamp;temperature;humidity
75262;DHT22;63859;51.064;4.580;2023-04-26T00:00:19;6.70;99.90
75262;DHT22;63859;51.064;4.580;2023-04-26T00:02:45;6.70;99.90
75262;DHT22;63859;51.064;4.580;2023-04-26T00:05:10;6.70;99.90
75262;DHT22;63859;51.064;4.580;2023-04-26T00:07:36;6.60;99.90
75262;DHT22;63859;51.064;4.580;2023-04-26T00:10:06;6.60;99.90
75262;DHT22;63859;51.064;4.580;2023-04-26T00:12:31;6.50;99.90
75262;DHT22;63859;51.064;4.580;2023-04-26T00:14:57;6.40;99.90
75262;DHT22;63859;51.064;4.580;2023-04-26T00:17:23;6.40;99.90
75262;DHT22;63859;51.064;4.580;2023-04-26T00:19:49;6.50;99.90
75262;DHT22;63859;51.064;4.580;2023-04-26T00:22:15;6.60;99.90
75262;DHT22;63859;51.064;4.580;2023-04-26T00:24:41;6.50;99.90
75262;DHT22;63859;51.064;4.580;2023-04-26T00:27:07;6.50;99.90
75262;DHT22;63859;51.064;4.580;2023-04-26T00:29:35;6.30;99.90
75262;DHT22;63859;51.064;4.580;2023-04-26T00:32:01;6.30;99.90
75262;DHT22;63859;51.064;4.580;2023-04-26T00:34:34;6.20;99.90
75262;DHT22;63859;51.064;4.580;2023-04-26T00:37:01;6.00;99.90
75262;DHT22;63859;51.064;4.580;2023-04-26T00:39:26;5.90;99.90
75262;DHT22;63859;51.064;4.580;2023-04-26T00:41:52;5.90;99.90
75262;DHT22;63859;51.064;4.580;2023-04-26T00:44:18;5.90;99.90
75262;DHT22;63859;51.064;4.580;2023-04-26T00:46:44;5.90;99.90
75262;DHT22;63859;51.064;4.580;2023-04-26T00:49:17;6.00;99.90
75262;DHT22;63859;51.064;4.580;2023-04-26T00:51:44;6.10;99.90
75262;DHT22;63859;51.064;4.580;2023-04-26T00:54:10;6.20;99.90
75262;DHT22;63859;51.064;4.580;2023-04-26T00:56:38;6.20;99.90
75262;DHT22;63859;51.064;4.580;2023-04-26T00:59:03;6.20;99.90
75262;DHT22;63859;51.064;4.580;2023-04-26T01:01:29;6.10;99.90
75262;DHT22;63859;51.064;4.580;2023-04-26T01:03:55;6.00;99.90
75262;DHT22;63859;51.064;4.580;2023-04-26T01:06:21;5.90;99.90
75262;DHT22;63859;51.064;4.580;2023-04-26T01:08:49;5.80;99.90
75262;DHT22;63859;51.064;4.580;2023-04-26T01:11:17;5.80;99.90
75262;DHT22;63859;51.064;4.580;2023-04-26T01:13:44;5.80;99.90
75262;DHT22;63859;51.064;4.580;2023-04-26T01:16:10;5.90;99.90
75262;DHT22;63859;51.064;4.580;2023-04-26T01:18:37;5.90;99.90
75262;DHT22;63859;51.064;4.580;2023-04-26T01:21:02;6.10;99.90
75262;DHT22;63859;51.064;4.580;2023-04-26T01:23:29;6.10;99.90
75262;DHT22;63859;51.064;4.580;2023-04-26T01:25:55;6.10;99.90
75262;DHT22;63859;51.064;4.580;2023-04-26T01:28:21;6.10;99.90
75262;DHT22;63859;51.064;4.580;2023-04-26T01:30:47;6.10;99.90
75262;DHT22;63859;51.064;4.580;2023-04-26T01:33:13;6.10;99.90
75262;DHT22;63859;51.064;4.580;2023-04-26T01:35:40;6.10;99.90
75262;DHT22;63859;51.064;4.580;2023-04-26T01:38:06;6.10;99.90
75262;DHT22;63859;51.064;4.580;2023-04-26T01:40:32;6.10;99.90
75262;DHT22;63859;51.064;4.580;2023-04-26T01:42:59;6.20;99.90
75262;DHT22;63859;51.064;4.580;2023-04-26T01:45:24;6.10;99.90
75262;DHT22;63859;51.064;4.580;2023-04-26T01:47:50;6.10;99.90
75262;DHT22;63859;51.064;4.580;2023-04-26T01:50:16;6.10;99.90
75262;DHT22;63859;51.064;4.580;2023-04-26T01:52:41;6.00;99.90
75262;DHT22;63859;51.064;4.580;2023-04-26T01:55:07;5.90;99.90
75262;DHT22;63859;51.064;4.580;2023-04-26T01:57:33;5.80;99.90
75262;DHT22;63859;51.064;4.580;2023-04-26T01:59:59;5.70;99.90
75262;DHT22;63859;51.064;4.580;2023-04-26T02:02:26;5.70;99.90
75262;DHT22;63859;51.064;4.580;2023-04-26T02:04:52;5.60;99.90
75262;DHT22;63859;51.064;4.580;2023-04-26T02:07:18;5.30;99.90
75262;DHT22;63859;51.064;4.580;2023-04-26T02:09:44;5.00;99.90
75262;DHT22;63859;51.064;4.580;2023-04-26T02:12:11;5.00;99.90
75262;DHT22;63859;51.064;4.580;2023-04-26T02:14:36;4.90;99.90
75262;DHT22;63859;51.064;4.580;2023-04-26T02:17:03;4.90;99.90
75262;DHT22;63859;51.064;4.580;2023-04-26T02:19:29;4.90;99.90
75262;DHT22;63859;51.064;4.580;2023-04-26T02:21:56;4.90;99.90
75262;DHT22;63859;51.064;4.580;2023-04-26T02:24:23;4.80;99.90
75262;DHT22;63859;51.064;4.580;2023-04-26T02:26:49;4.70;99.90
75262;DHT22;63859;51.064;4.580;2023-04-26T02:29:16;4.60;99.90
75262;DHT22;63859;51.064;4.580;2023-04-26T02:31:42;4.50;99.90
75262;DHT22;63859;51.064;4.580;2023-04-26T02:34:08;4.50;99.90
75262;DHT22;63859;51.064;4.580;2023-04-26T02:36:34;4.60;99.90
75262;DHT22;63859;51.064;4.580;2023-04-26T02:39:00;4.60;99.90
75262;DHT22;63859;51.064;4.580;2023-04-26T02:41:26;4.60;99.90
75262;DHT22;63859;51.064;4.580;2023-04-26T02:43:51;4.60;99.90
75262;DHT22;63859;51.064;4.580;2023-04-26T02:46:17;4.60;99.90
75262;DHT22;63859;51.064;4.580;2023-04-26T02:48:43;4.60;99.90
75262;DHT22;63859;51.064;4.580;2023-04-26T02:51:08;4.60;99.90
75262;DHT22;63859;51.064;4.580;2023-04-26T02:53:34;4.60;99.90
75262;DHT22;63859;51.064;4.580;2023-04-26T02:56:00;4.50;99.90
75262;DHT22;63859;51.064;4.580;2023-04-26T02:58:26;4.50;99.90
75262;DHT22;63859;51.064;4.580;2023-04-26T03:00:51;4.40;99.90
75262;DHT22;63859;51.064;4.580;2023-04-26T03:03:19;4.40;99.90
75262;DHT22;63859;51.064;4.580;2023-04-26T03:05:45;4.30;99.90
75262;DHT22;63859;51.064;4.580;2023-04-26T03:08:10;4.30;99.90
75262;DHT22;63859;51.064;4.580;2023-04-26T03:10:36;4.30;99.90
75262;DHT22;63859;51.064;4.580;2023-04-26T03:13:05;4.30;99.90
75262;DHT22;63859;51.064;4.580;2023-04-26T03:15:31;4.30;99.90
75262;DHT22;63859;51.064;4.580;2023-04-26T03:17:57;4.30;99.90
75262;DHT22;63859;51.064;4.580;2023-04-26T03:20:23;4.20;99.90
75262;DHT22;63859;51.064;4.580;2023-04-26T03:22:49;4.20;99.90
75262;DHT22;63859;51.064;4.580;2023-04-26T03:25:15;4.20;99.90
75262;DHT22;63859;51.064;4.580;2023-04-26T03:27:41;4.20;99.90
75262;DHT22;63859;51.064;4.580;2023-04-26T03:30:07;4.20;99.90
75262;DHT22;63859;51.064;4.580;2023-04-26T03:32:33;4.10;99.90
75262;DHT22;63859;51.064;4.580;2023-04-26T03:34:59;4.20;99.90
75262;DHT22;63859;51.064;4.580;2023-04-26T03:37:25;4.20;99.90
75262;DHT22;63859;51.064;4.580;2023-04-26T03:39:50;4.20;99.90
75262;DHT22;63859;51.064;4.580;2023-04-26T03:42:19;4.20;99.90
75262;DHT22;63859;51.064;4.580;2023-04-26T03:44:44;4.20;99.90
75262;DHT22;63859;51.064;4.580;2023-04-26T03:47:10;4.20;99.90
75262;DHT22;63859;51.064;4.580;2023-04-26T03:49:36;4.20;99.90
75262;DHT22;63859;51.064;4.580;2023-04-26T03:52:01;4.20;99.90
75262;DHT22;63859;51.064;4.580;2023-04-26T03:54:27;4.30;99.90
75262;DHT22;63859;51.064;4.580;2023-04-26T03:56:53;4.30;99.90
75262;DHT22;63859;51.064;4.580;2023-04-26T03:59:19;4.40;99.90
75262;DHT22;63859;51.064;4.580;2023-04-26T04:01:44;4.50;99.90
75262;DHT22;63859;51.064;4.580;2023-04-26T04:04:10;4.60;99.90
75262;DHT22;63859;51.064;4.580;2023-04-26T04:06:36;4.70;99.90
75262;DHT22;63859;51.064;4.580;2023-04-26T04:09:03;4.70;99.90
75262;DHT22;63859;51.064;4.580;2023-04-26T04:11:30;4.70;99.90
75262;DHT22;63859;51.064;4.580;2023-04-26T04:13:55;4.80;99.90
75262;DHT22;63859;51.064;4.580;2023-04-26T04:16:21;4.80;99.90
75262;DHT22;63859;51.064;4.580;2023-04-26T04:18:47;4.70;99.90
75262;DHT22;63859;51.064;4.580;2023-04-26T04:21:12;4.70;99.90
75262;DHT22;63859;51.064;4.580;2023-04-26T04:23:38;4.70;99.90
75262;DHT22;63859;51.064;4.580;2023-04-26T04:26:04;4.60;99.90
75262;DHT22;63859;51.064;4.580;2023-04-26T04:28:31;4.60;99.90
75262;DHT22;63859;51.064;4.580;2023-04-26T04:30:57;4.50;99.90
75262;DHT22;63859;51.064;4.580;2023-04-26T04:33:23;4.50;99.90
75262;DHT22;63859;51.064;4.580;2023-04-26T04:35:53;4.60;99.90
75262;DHT22;63859;51.064;4.580;2023-04-26T04:38:19;4.60;99.90
75262;DHT22;63859;51.064;4.580;2023-04-26T04:40:47;4.70;99.90
75262;DHT22;63859;51.064;4.580;2023-04-26T04:43:14;4.70;99.90
75262;DHT22;63859;51.064;4.580;2023-04-26T04:45:41;4.80;99.90
75262;DHT22;63859;51.064;4.580;2023-04-26T04:48:07;4.80;99.90
75262;DHT22;63859;51.064;4.580;2023-04-26T04:50:33;4.80;99.90
75262;DHT22;63859;51.064;4.580;2023-04-26T04:53:00;4.90;99.90
75262;DHT22;63859;51.064;4.580;2023-04-26T04:55:26;4.90;99.90
75262;DHT22;63859;51.064;4.580;2023-04-26T04:57:52;4.80;99.90
75262;DHT22;63859;51.064;4.580;2023-04-26T05:00:18;4.90;99.90
75262;DHT22;63859;51.064;4.580;2023-04-26T05:02:44;4.90;99.90
75262;DHT22;63859;51.064;4.580;2023-04-26T05:05:10;5.00;99.90
75262;DHT22;63859;51.064;4.580;2023-04-26T05:07:36;5.10;99.90
75262;DHT22;63859;51.064;4.580;2023-04-26T05:10:02;5.10;99.90
75262;DHT22;63859;51.064;4.580;2023-04-26T05:12:28;5.20;99.90
75262;DHT22;63859;51.064;4.580;2023-04-26T05:14:53;5.20;99.90
75262;DHT22;63859;51.064;4.580;2023-04-26T05:17:19;5.30;99.90
75262;DHT22;63859;51.064;4.580;2023-04-26T05:19:45;5.20;99.90
75262;DHT22;63859;51.064;4.580;2023-04-26T05:22:11;5.20;99.90
75262;DHT22;63859;51.064;4.580;2023-04-26T05:24:45;5.20;99.90
75262;DHT22;63859;51.064;4.580;2023-04-26T05:27:12;5.20;99.90
75262;DHT22;63859;51.064;4.580;2023-04-26T05:29:37;5.20;99.90
75262;DHT22;63859;51.064;4.580;2023-04-26T05:32:03;5.20;99.90
75262;DHT22;63859;51.064;4.580;2023-04-26T05:34:29;5.30;99.90
75262;DHT22;63859;51.064;4.580;2023-04-26T05:36:55;5.30;99.90
75262;DHT22;63859;51.064;4.580;2023-04-26T05:39:20;5.40;99.90
75262;DHT22;63859;51.064;4.580;2023-04-26T05:41:46;5.50;99.90
75262;DHT22;63859;51.064;4.580;2023-04-26T05:44:12;5.60;99.90
75262;DHT22;63859;51.064;4.580;2023-04-26T05:46:39;5.60;99.90
75262;DHT22;63859;51.064;4.580;2023-04-26T05:49:05;5.60;99.90
75262;DHT22;63859;51.064;4.580;2023-04-26T05:51:31;5.70;99.90
75262;DHT22;63859;51.064;4.580;2023-04-26T05:53:56;5.80;99.90
75262;DHT22;63859;51.064;4.580;2023-04-26T05:56:22;5.90;99.90
75262;DHT22;63859;51.064;4.580;2023-04-26T05:58:48;5.90;99.90
75262;DHT22;63859;51.064;4.580;2023-04-26T06:01:15;5.90;99.90
75262;DHT22;63859;51.064;4.580;2023-04-26T06:03:40;5.90;99.90
75262;DHT22;63859;51.064;4.580;2023-04-26T06:06:06;5.90;99.90
75262;DHT22;63859;51.064;4.580;2023-04-26T06:08:32;5.90;99.90
75262;DHT22;63859;51.064;4.580;2023-04-26T06:10:58;5.90;99.90
75262;DHT22;63859;51.064;4.580;2023-04-26T06:13:24;5.80;99.90
75262;DHT22;63859;51.064;4.580;2023-04-26T06:15:52;5.80;99.90
75262;DHT22;63859;51.064;4.580;2023-04-26T06:18:18;5.80;99.90
75262;DHT22;63859;51.064;4.580;2023-04-26T06:20:45;5.90;99.90
75262;DHT22;63859;51.064;4.580;2023-04-26T06:23:11;5.90;99.90
75262;DHT22;63859;51.064;4.580;2023-04-26T06:25:37;6.00;99.90
75262;DHT22;63859;51.064;4.580;2023-04-26T06:28:04;6.00;99.90
75262;DHT22;63859;51.064;4.580;2023-04-26T06:30:30;6.00;99.90
75262;DHT22;63859;51.064;4.580;2023-04-26T06:32:56;6.10;99.90
75262;DHT22;63859;51.064;4.580;2023-04-26T06:35:24;6.10;99.90
75262;DHT22;63859;51.064;4.580;2023-04-26T06:37:50;6.10;99.90
75262;DHT22;63859;51.064;4.580;2023-04-26T06:40:16;6.20;99.90
75262;DHT22;63859;51.064;4.580;2023-04-26T06:42:42;6.20;99.90
75262;DHT22;63859;51.064;4.580;2023-04-26T06:45:08;6.30;99.90
75262;DHT22;63859;51.064;4.580;2023-04-26T06:47:34;6.30;99.90
75262;DHT22;63859;51.064;4.580;2023-04-26T06:50:00;6.20;99.90
75262;DHT22;63859;51.064;4.580;2023-04-26T06:52:25;6.30;99.90
75262;DHT22;63859;51.064;4.580;2023-04-26T06:54:51;6.30;99.90
75262;DHT22;63859;51.064;4.580;2023-04-26T06:57:17;6.30;99.90
75262;DHT22;63859;51.064;4.580;2023-04-26T06:59:43;6.30;99.90
75262;DHT22;63859;51.064;4.580;2023-04-26T07:02:08;6.30;99.90
75262;DHT22;63859;51.064;4.580;2023-04-26T07:04:34;6.40;99.90
75262;DHT22;63859;51.064;4.580;2023-04-26T07:07:00;6.40;99.90
75262;DHT22;63859;51.064;4.580;2023-04-26T07:09:26;6.50;99.90
75262;DHT22;63859;51.064;4.580;2023-04-26T07:11:52;6.60;99.90
75262;DHT22;63859;51.064;4.580;2023-04-26T07:14:17;6.60;99.90
75262;DHT22;63859;51.064;4.580;2023-04-26T07:16:43;6.70;99.90
75262;DHT22;63859;51.064;4.580;2023-04-26T07:19:09;6.80;99.90
75262;DHT22;63859;51.064;4.580;2023-04-26T07:21:35;6.90;99.90
75262;DHT22;63859;51.064;4.580;2023-04-26T07:24:01;7.00;99.90
75262;DHT22;63859;51.064;4.580;2023-04-26T07:26:27;7.10;99.90
75262;DHT22;63859;51.064;4.580;2023-04-26T07:28:53;7.10;99.90
75262;DHT22;63859;51.064;4.580;2023-04-26T07:31:19;7.20;99.90
75262;DHT22;63859;51.064;4.580;2023-04-26T07:33:45;7.20;99.90
75262;DHT22;63859;51.064;4.580;2023-04-26T07:36:10;7.20;99.90
75262;DHT22;63859;51.064;4.580;2023-04-26T07:38:36;7.20;99.90
75262;DHT22;63859;51.064;4.580;2023-04-26T07:41:01;7.30;99.90
75262;DHT22;63859;51.064;4.580;2023-04-26T07:43:28;7.40;99.90
75262;DHT22;63859;51.064;4.580;2023-04-26T07:45:57;7.50;99.90
75262;DHT22;63859;51.064;4.580;2023-04-26T07:48:23;7.60;99.90
75262;DHT22;63859;51.064;4.580;2023-04-26T07:50:49;7.70;99.90
75262;DHT22;63859;51.064;4.580;2023-04-26T07:53:14;7.80;99.90
75262;DHT22;63859;51.064;4.580;2023-04-26T07:55:40;7.80;99.90
75262;DHT22;63859;51.064;4.580;2023-04-26T07:58:06;7.90;99.90
75262;DHT22;63859;51.064;4.580;2023-04-26T08:00:32;8.10;99.90
75262;DHT22;63859;51.064;4.580;2023-04-26T08:03:02;8.20;99.90
75262;DHT22;63859;51.064;4.580;2023-04-26T08:05:28;8.20;99.90
75262;DHT22;63859;51.064;4.580;2023-04-26T08:07:54;8.20;99.90
75262;DHT22;63859;51.064;4.580;2023-04-26T08:10:19;8.30;99.90
75262;DHT22;63859;51.064;4.580;2023-04-26T08:12:45;8.20;99.90
75262;DHT22;63859;51.064;4.580;2023-04-26T08:15:11;8.30;99.90
75262;DHT22;63859;51.064;4.580;2023-04-26T08:17:37;8.40;99.90
75262;DHT22;63859;51.064;4.580;2023-04-26T08:20:03;8.50;99.90
75262;DHT22;63859;51.064;4.580;2023-04-26T08:22:30;8.50;99.90
75262;DHT22;63859;51.064;4.580;2023-04-26T08:24:56;8.60;99.90
75262;DHT22;63859;51.064;4.580;2023-04-26T08:27:21;8.60;99.90
75262;DHT22;63859;51.064;4.580;2023-04-26T08:29:47;8.70;99.90
75262;DHT22;63859;51.064;4.580;2023-04-26T08:32:13;8.80;99.90
75262;DHT22;63859;51.064;4.580;2023-04-26T08:34:39;8.80;99.90
75262;DHT22;63859;51.064;4.580;2023-04-26T08:37:07;8.90;99.90
75262;DHT22;63859;51.064;4.580;2023-04-26T08:39:33;9.10;99.90
75262;DHT22;63859;51.064;4.580;2023-04-26T08:42:12;9.30;99.90
75262;DHT22;63859;51.064;4.580;2023-04-26T08:44:41;9.40;99.90
75262;DHT22;63859;51.064;4.580;2023-04-26T08:47:19;9.50;99.90
75262;DHT22;63859;51.064;4.580;2023-04-26T08:49:52;9.60;99.90
75262;DHT22;63859;51.064;4.580;2023-04-26T08:52:27;9.60;99.90
75262;DHT22;63859;51.064;4.580;2023-04-26T08:54:53;9.60;99.90
75262;DHT22;63859;51.064;4.580;2023-04-26T08:57:21;9.60;99.90
75262;DHT22;63859;51.064;4.580;2023-04-26T08:59:48;9.70;99.90
75262;DHT22;63859;51.064;4.580;2023-04-26T09:02:18;9.80;99.90
75262;DHT22;63859;51.064;4.580;2023-04-26T09:04:47;9.90;99.90
75262;DHT22;63859;51.064;4.580;2023-04-26T09:07:20;10.00;99.90
75262;DHT22;63859;51.064;4.580;2023-04-26T09:09:48;10.20;99.90
75262;DHT22;63859;51.064;4.580;2023-04-26T09:12:19;10.50;99.90
75262;DHT22;63859;51.064;4.580;2023-04-26T09:14:46;10.70;99.90
75262;DHT22;63859;51.064;4.580;2023-04-26T09:17:32;11.00;99.90
75262;DHT22;63859;51.064;4.580;2023-04-26T09:19:59;11.30;99.90
75262;DHT22;63859;51.064;4.580;2023-04-26T09:24:54;11.70;99.90
75262;DHT22;63859;51.064;4.580;2023-04-26T09:27:20;11.80;99.90
75262;DHT22;63859;51.064;4.580;2023-04-26T09:30:03;11.80;99.90
75262;DHT22;63859;51.064;4.580;2023-04-26T09:35:38;11.80;99.90
75262;DHT22;63859;51.064;4.580;2023-04-26T09:38:12;11.50;99.90
75262;DHT22;63859;51.064;4.580;2023-04-26T09:50:49;12.30;99.90
75262;DHT22;63859;51.064;4.580;2023-04-26T09:53:36;12.50;99.90
75262;DHT22;63859;51.064;4.580;2023-04-26T09:56:10;12.70;99.90
75262;DHT22;63859;51.064;4.580;2023-04-26T10:01:15;12.90;99.90
75262;DHT22;63859;51.064;4.580;2023-04-26T10:03:42;12.90;99.90
75262;DHT22;63859;51.064;4.580;2023-04-26T10:06:08;12.90;99.90
75262;DHT22;63859;51.064;4.580;2023-04-26T10:08:35;12.70;99.90
75262;DHT22;63859;51.064;4.580;2023-04-26T10:11:03;12.80;99.90
75262;DHT22;63859;51.064;4.580;2023-04-26T10:13:33;12.70;99.90
75262;DHT22;63859;51.064;4.580;2023-04-26T10:15:59;12.40;99.90
75262;DHT22;63859;51.064;4.580;2023-04-26T10:18:26;12.20;99.90
75262;DHT22;63859;51.064;4.580;2023-04-26T10:20:55;12.10;99.90
75262;DHT22;63859;51.064;4.580;2023-04-26T10:23:23;12.10;99.90
75262;DHT22;63859;51.064;4.580;2023-04-26T10:25:52;12.20;99.90
75262;DHT22;63859;51.064;4.580;2023-04-26T10:31:05;12.80;99.90
75262;DHT22;63859;51.064;4.580;2023-04-26T10:33:33;12.90;99.90
75262;DHT22;63859;51.064;4.580;2023-04-26T10:36:02;13.00;99.90
75262;DHT22;63859;51.064;4.580;2023-04-26T10:38:28;13.10;99.90
75262;DHT22;63859;51.064;4.580;2023-04-26T10:40:54;13.10;99.90
75262;DHT22;63859;51.064;4.580;2023-04-26T10:43:27;13.10;99.90
75262;DHT22;63859;51.064;4.580;2023-04-26T10:45:53;13.00;99.90
75262;DHT22;63859;51.064;4.580;2023-04-26T10:48:28;12.90;99.90
75262;DHT22;63859;51.064;4.580;2023-04-26T10:58:45;12.70;99.40
75262;DHT22;63859;51.064;4.580;2023-04-26T11:03:42;12.50;99.90
75262;DHT22;63859;51.064;4.580;2023-04-26T11:06:09;12.50;99.90
75262;DHT22;63859;51.064;4.580;2023-04-26T11:08:38;12.60;99.40
75262;DHT22;63859;51.064;4.580;2023-04-26T11:13:34;13.60;99.20
75262;DHT22;63859;51.064;4.580;2023-04-26T11:16:02;13.70;98.60
75262;DHT22;63859;51.064;4.580;2023-04-26T11:18:32;14.20;99.20
75262;DHT22;63859;51.064;4.580;2023-04-26T11:20:59;14.10;98.40
75262;DHT22;63859;51.064;4.580;2023-04-26T11:23:28;13.90;97.10
75262;DHT22;63859;51.064;4.580;2023-04-26T11:25:58;14.00;98.40
75262;DHT22;63859;51.064;4.580;2023-04-26T11:28:24;13.90;94.80
75262;DHT22;63859;51.064;4.580;2023-04-26T11:30:50;13.90;95.70
75262;DHT22;63859;51.064;4.580;2023-04-26T11:33:18;13.80;94.70
75262;DHT22;63859;51.064;4.580;2023-04-26T11:35:45;13.80;93.60
75262;DHT22;63859;51.064;4.580;2023-04-26T11:38:12;13.60;93.00
75262;DHT22;63859;51.064;4.580;2023-04-26T11:40:38;13.40;92.50
75262;DHT22;63859;51.064;4.580;2023-04-26T11:43:05;13.60;92.40
75262;DHT22;63859;51.064;4.580;2023-04-26T11:45:36;13.70;92.00
75262;DHT22;63859;51.064;4.580;2023-04-26T11:48:06;14.00;92.90
75262;DHT22;63859;51.064;4.580;2023-04-26T11:50:34;14.30;92.70
75262;DHT22;63859;51.064;4.580;2023-04-26T11:53:03;14.60;92.60
75262;DHT22;63859;51.064;4.580;2023-04-26T11:55:31;15.00;92.30
75262;DHT22;63859;51.064;4.580;2023-04-26T11:57:58;15.50;91.20
75262;DHT22;63859;51.064;4.580;2023-04-26T12:00:25;15.80;90.50
75262;DHT22;63859;51.064;4.580;2023-04-26T12:02:51;16.10;87.00
75262;DHT22;63859;51.064;4.580;2023-04-26T12:07:49;16.30;83.40
75262;DHT22;63859;51.064;4.580;2023-04-26T12:10:22;16.30;85.30
75262;DHT22;63859;51.064;4.580;2023-04-26T12:12:52;16.40;76.90
75262;DHT22;63859;51.064;4.580;2023-04-26T12:15:23;16.20;76.10
75262;DHT22;63859;51.064;4.580;2023-04-26T12:18:14;16.30;80.60
75262;DHT22;63859;51.064;4.580;2023-04-26T12:20:40;16.50;77.40
75262;DHT22;63859;51.064;4.580;2023-04-26T12:23:14;16.40;72.30
75262;DHT22;63859;51.064;4.580;2023-04-26T12:25:54;15.90;71.40
75262;DHT22;63859;51.064;4.580;2023-04-26T12:28:21;16.10;73.80
75262;DHT22;63859;51.064;4.580;2023-04-26T12:30:47;15.60;71.10
75262;DHT22;63859;51.064;4.580;2023-04-26T12:33:13;15.10;72.10
75262;DHT22;63859;51.064;4.580;2023-04-26T12:35:39;15.10;73.10
75262;DHT22;63859;51.064;4.580;2023-04-26T12:38:05;15.60;73.10
75262;DHT22;63859;51.064;4.580;2023-04-26T12:40:31;15.80;71.20
75262;DHT22;63859;51.064;4.580;2023-04-26T12:42:57;16.10;71.70
75262;DHT22;63859;51.064;4.580;2023-04-26T12:45:24;16.60;72.20
75262;DHT22;63859;51.064;4.580;2023-04-26T12:47:53;16.60;69.60
75262;DHT22;63859;51.064;4.580;2023-04-26T12:50:19;16.40;69.50
75262;DHT22;63859;51.064;4.580;2023-04-26T12:52:45;16.30;67.90
75262;DHT22;63859;51.064;4.580;2023-04-26T12:55:13;16.10;68.60
75262;DHT22;63859;51.064;4.580;2023-04-26T12:57:40;16.40;71.50
75262;DHT22;63859;51.064;4.580;2023-04-26T13:00:09;16.80;72.60
75262;DHT22;63859;51.064;4.580;2023-04-26T13:02:36;17.00;72.40
75262;DHT22;63859;51.064;4.580;2023-04-26T13:05:02;16.80;73.10
75262;DHT22;63859;51.064;4.580;2023-04-26T13:07:33;16.80;71.40
75262;DHT22;63859;51.064;4.580;2023-04-26T13:10:00;16.90;72.00
75262;DHT22;63859;51.064;4.580;2023-04-26T13:12:27;16.80;70.80
75262;DHT22;63859;51.064;4.580;2023-04-26T13:14:53;17.00;70.90
75262;DHT22;63859;51.064;4.580;2023-04-26T13:17:20;17.00;70.00
75262;DHT22;63859;51.064;4.580;2023-04-26T13:19:46;16.60;66.80
75262;DHT22;63859;51.064;4.580;2023-04-26T13:22:12;16.60;69.30
75262;DHT22;63859;51.064;4.580;2023-04-26T13:24:38;16.50;68.80
75262;DHT22;63859;51.064;4.580;2023-04-26T13:27:03;16.80;68.00
75262;DHT22;63859;51.064;4.580;2023-04-26T13:29:29;16.50;67.60
75262;DHT22;63859;51.064;4.580;2023-04-26T13:31:57;16.90;71.90
75262;DHT22;63859;51.064;4.580;2023-04-26T13:34:24;17.20;70.10
75262;DHT22;63859;51.064;4.580;2023-04-26T13:36:51;17.70;66.90
75262;DHT22;63859;51.064;4.580;2023-04-26T13:39:16;18.30;71.50
75262;DHT22;63859;51.064;4.580;2023-04-26T13:41:42;18.60;68.30
75262;DHT22;63859;51.064;4.580;2023-04-26T13:44:08;19.20;69.40
75262;DHT22;63859;51.064;4.580;2023-04-26T13:46:34;19.60;65.00
75262;DHT22;63859;51.064;4.580;2023-04-26T13:48:59;19.30;63.10
75262;DHT22;63859;51.064;4.580;2023-04-26T13:51:26;19.00;63.70
75262;DHT22;63859;51.064;4.580;2023-04-26T13:53:54;18.70;64.00
75262;DHT22;63859;51.064;4.580;2023-04-26T13:56:20;18.40;64.50
75262;DHT22;63859;51.064;4.580;2023-04-26T13:58:45;18.20;64.70
75262;DHT22;63859;51.064;4.580;2023-04-26T14:01:11;18.00;65.70
75262;DHT22;63859;51.064;4.580;2023-04-26T14:03:39;18.00;66.20
75262;DHT22;63859;51.064;4.580;2023-04-26T14:06:05;17.70;65.80
75262;DHT22;63859;51.064;4.580;2023-04-26T14:08:31;17.90;67.30
75262;DHT22;63859;51.064;4.580;2023-04-26T14:10:57;17.60;65.80
75262;DHT22;63859;51.064;4.580;2023-04-26T14:13:22;17.50;65.20
75262;DHT22;63859;51.064;4.580;2023-04-26T14:15:48;17.40;67.10
75262;DHT22;63859;51.064;4.580;2023-04-26T14:18:15;17.10;63.30
75262;DHT22;63859;51.064;4.580;2023-04-26T14:20:41;17.00;65.30
75262;DHT22;63859;51.064;4.580;2023-04-26T14:23:06;17.00;65.00
75262;DHT22;63859;51.064;4.580;2023-04-26T14:25:32;17.00;67.40
75262;DHT22;63859;51.064;4.580;2023-04-26T14:27:58;17.00;66.00
75262;DHT22;63859;51.064;4.580;2023-04-26T14:30:24;17.10;68.10
75262;DHT22;63859;51.064;4.580;2023-04-26T14:32:50;17.20;68.10
75262;DHT22;63859;51.064;4.580;2023-04-26T14:35:17;17.10;68.10
75262;DHT22;63859;51.064;4.580;2023-04-26T14:37:42;17.00;65.10
75262;DHT22;63859;51.064;4.580;2023-04-26T14:40:09;16.60;64.20
75262;DHT22;63859;51.064;4.580;2023-04-26T14:42:35;16.40;67.90
75262;DHT22;63859;51.064;4.580;2023-04-26T14:45:01;16.30;69.00
75262;DHT22;63859;51.064;4.580;2023-04-26T14:47:27;16.10;66.00
75262;DHT22;63859;51.064;4.580;2023-04-26T14:49:53;15.90;67.30
75262;DHT22;63859;51.064;4.580;2023-04-26T14:52:19;15.80;68.30
75262;DHT22;63859;51.064;4.580;2023-04-26T14:54:45;15.80;69.80
75262;DHT22;63859;51.064;4.580;2023-04-26T14:57:11;15.80;68.20
75262;DHT22;63859;51.064;4.580;2023-04-26T14:59:37;15.60;70.10
75262;DHT22;63859;51.064;4.580;2023-04-26T15:02:02;15.60;67.20
75262;DHT22;63859;51.064;4.580;2023-04-26T15:04:29;15.60;67.40
75262;DHT22;63859;51.064;4.580;2023-04-26T15:06:55;15.90;67.70
75262;DHT22;63859;51.064;4.580;2023-04-26T15:09:21;16.60;68.60
75262;DHT22;63859;51.064;4.580;2023-04-26T15:11:46;17.20;64.60
75262;DHT22;63859;51.064;4.580;2023-04-26T15:14:12;17.80;63.00
75262;DHT22;63859;51.064;4.580;2023-04-26T15:16:38;18.10;63.20
75262;DHT22;63859;51.064;4.580;2023-04-26T15:19:03;18.40;64.60
75262;DHT22;63859;51.064;4.580;2023-04-26T15:21:29;18.70;63.00
75262;DHT22;63859;51.064;4.580;2023-04-26T15:23:55;18.60;62.40
75262;DHT22;63859;51.064;4.580;2023-04-26T15:26:21;18.80;64.40
75262;DHT22;63859;51.064;4.580;2023-04-26T15:28:48;19.10;63.60
75262;DHT22;63859;51.064;4.580;2023-04-26T15:31:13;18.60;63.10
75262;DHT22;63859;51.064;4.580;2023-04-26T15:33:39;18.50;64.70
75262;DHT22;63859;51.064;4.580;2023-04-26T15:36:05;18.50;63.30
75262;DHT22;63859;51.064;4.580;2023-04-26T15:38:33;18.40;64.00
75262;DHT22;63859;51.064;4.580;2023-04-26T15:40:59;18.60;64.40
75262;DHT22;63859;51.064;4.580;2023-04-26T15:43:24;19.00;63.00
75262;DHT22;63859;51.064;4.580;2023-04-26T15:45:51;19.20;62.60
75262;DHT22;63859;51.064;4.580;2023-04-26T15:48:16;18.90;62.80
75262;DHT22;63859;51.064;4.580;2023-04-26T15:50:42;18.80;63.50
75262;DHT22;63859;51.064;4.580;2023-04-26T15:53:08;19.20;63.40
75262;DHT22;63859;51.064;4.580;2023-04-26T15:55:34;19.60;63.10
75262;DHT22;63859;51.064;4.580;2023-04-26T15:57:59;19.90;61.10
75262;DHT22;63859;51.064;4.580;2023-04-26T16:00:25;19.60;58.10
75262;DHT22;63859;51.064;4.580;2023-04-26T16:02:51;18.70;60.80
75262;DHT22;63859;51.064;4.580;2023-04-26T16:05:17;18.00;61.00
75262;DHT22;63859;51.064;4.580;2023-04-26T16:07:43;18.10;62.30
75262;DHT22;63859;51.064;4.580;2023-04-26T16:10:09;18.80;64.20
75262;DHT22;63859;51.064;4.580;2023-04-26T16:12:35;19.90;62.80